Time;durP1;ratioP1;P1;durP2;ratioP2;P2;SDS_P1;SDS_P2;PMS_P1;PMS_P2;Temp;Humidity;BMP_temperature;BMP_pressure;BME280_temperature;BME280_humidity;BME280_pressure;Samples;Min_cycle;Max_cycle;Signal;HPM_P1;HPM_P2
2021/01/20 00:01:05;;;;;;;5.18;2.75;;;;;;;;;;6300674;22;20003;-76
2021/01/20 00:03:32;;;;;;;4.05;2.60;;;;;;;;;;6301466;22;20665;-76
2021/01/20 00:05:58;;;;;;;5.32;2.80;;;;;;;;;;6301715;22;20412;-79
2021/01/20 00:08:24;;;;;;;6.18;3.08;;;;;;;;;;6273348;22;20505;-78
2021/01/20 00:10:50;;;;;;;4.82;2.65;;;;;;;;;;6273644;22;19999;-77
2021/01/20 00:13:16;;;;;;;5.85;3.33;;;;;;;;;;6273769;22;20344;-77
2021/01/20 00:15:43;;;;;;;6.32;3.10;;;;;;;;;;6301307;22;20003;-77
2021/01/20 00:18:09;;;;;;;6.13;3.40;;;;;;;;;;6273904;22;20007;-77
2021/01/20 00:20:35;;;;;;;7.88;3.70;;;;;;;;;;6301082;22;20045;-78
2021/01/20 00:23:01;;;;;;;6.93;3.85;;;;;;;;;;6273466;22;20003;-77
2021/01/20 00:25:27;;;;;;;5.80;3.30;;;;;;;;;;6303100;22;19996;-77
2021/01/20 00:27:53;;;;;;;5.13;2.97;;;;;;;;;;6304337;22;19997;-79
2021/01/20 00:30:19;;;;;;;5.80;3.10;;;;;;;;;;6276904;22;20031;-79
2021/01/20 00:32:45;;;;;;;5.00;2.70;;;;;;;;;;6303471;22;20066;-79
2021/01/20 00:35:12;;;;;;;6.25;2.60;;;;;;;;;;6303751;22;19999;-78
2021/01/20 00:37:39;;;;;;;5.65;3.00;;;;;;;;;;6275093;22;19999;-78
2021/01/20 00:40:06;;;;;;;5.75;2.60;;;;;;;;;;6274607;22;20008;-77
2021/01/20 00:42:32;;;;;;;3.47;2.10;;;;;;;;;;6273575;22;20061;-78
2021/01/20 00:44:58;;;;;;;5.00;2.40;;;;;;;;;;6301580;22;19999;-78
2021/01/20 00:47:24;;;;;;;3.88;2.20;;;;;;;;;;6301196;22;20022;-78
2021/01/20 00:49:50;;;;;;;3.85;2.20;;;;;;;;;;6301279;22;19995;-78
2021/01/20 00:52:16;;;;;;;3.83;2.10;;;;;;;;;;6300953;22;20025;-77
2021/01/20 00:54:42;;;;;;;3.65;2.05;;;;;;;;;;6273925;22;20041;-76
2021/01/20 00:57:08;;;;;;;4.80;2.33;;;;;;;;;;6273954;22;20769;-76
2021/01/20 00:59:34;;;;;;;4.35;2.00;;;;;;;;;;6273866;22;19995;-77
2021/01/20 01:02:00;;;;;;;6.05;2.78;;;;;;;;;;6301105;22;19999;-77
2021/01/20 01:04:26;;;;;;;7.13;3.17;;;;;;;;;;6301135;22;20045;-77
2021/01/20 01:06:52;;;;;;;6.85;3.00;;;;;;;;;;6273706;22;20009;-75
2021/01/20 01:09:18;;;;;;;3.70;2.22;;;;;;;;;;6273889;22;20085;-76
2021/01/20 01:11:44;;;;;;;3.83;2.35;;;;;;;;;;6301111;22;19999;-77
2021/01/20 01:14:10;;;;;;;4.43;2.42;;;;;;;;;;6301470;22;20021;-76
2021/01/20 01:16:36;;;;;;;4.82;2.45;;;;;;;;;;6274441;22;20043;-76
2021/01/20 01:19:02;;;;;;;4.25;2.22;;;;;;;;;;6301579;22;20435;-76
2021/01/20 01:21:28;;;;;;;5.22;2.30;;;;;;;;;;6301155;22;20008;-76
2021/01/20 01:23:54;;;;;;;4.40;2.53;;;;;;;;;;6301063;22;20066;-77
2021/01/20 01:26:20;;;;;;;3.95;2.30;;;;;;;;;;6300986;22;20819;-77
2021/01/20 01:28:46;;;;;;;4.90;2.78;;;;;;;;;;6301210;22;19999;-76
2021/01/20 01:31:12;;;;;;;4.30;2.40;;;;;;;;;;6300665;22;20102;-77
2021/01/20 01:33:38;;;;;;;4.97;2.90;;;;;;;;;;6301268;22;20111;-76
2021/01/20 01:36:05;;;;;;;6.22;2.60;;;;;;;;;;6273541;22;20030;-77
2021/01/20 01:38:31;;;;;;;4.57;2.40;;;;;;;;;;6301148;22;20070;-75
2021/01/20 01:40:56;;;;;;;6.03;2.53;;;;;;;;;;6300797;22;20007;-76
2021/01/20 01:43:23;;;;;;;5.03;2.60;;;;;;;;;;6301317;22;20023;-77
2021/01/20 01:45:50;;;;;;;5.13;2.53;;;;;;;;;;6301509;22;20340;-77
2021/01/20 01:48:16;;;;;;;4.60;2.67;;;;;;;;;;6301660;22;20058;-76
2021/01/20 01:50:42;;;;;;;6.20;2.80;;;;;;;;;;6275717;22;20003;-76
2021/01/20 01:53:09;;;;;;;5.05;2.65;;;;;;;;;;6303063;22;19995;-77
2021/01/20 01:55:35;;;;;;;4.75;2.70;;;;;;;;;;6275746;22;20003;-77
2021/01/20 01:58:01;;;;;;;4.50;2.75;;;;;;;;;;6303211;22;20030;-77
2021/01/20 02:00:27;;;;;;;5.38;2.88;;;;;;;;;;6303002;22;20003;-77
2021/01/20 02:02:53;;;;;;;5.97;2.80;;;;;;;;;;6275008;22;20010;-77
2021/01/20 02:05:19;;;;;;;6.35;3.08;;;;;;;;;;6275473;22;19999;-77
2021/01/20 02:07:46;;;;;;;4.40;2.72;;;;;;;;;;6302572;22;20027;-76
2021/01/20 02:10:12;;;;;;;4.93;2.60;;;;;;;;;;6303021;22;20373;-76
2021/01/20 02:12:41;;;;;;;4.25;2.60;;;;;;;;;;6302166;22;20026;-76
2021/01/20 02:15:10;;;;;;;7.40;3.15;;;;;;;;;;6302732;22;19999;-77
2021/01/20 02:17:46;;;;;;;5.70;3.33;;;;;;;;;;6302803;22;20736;-76
2021/01/20 02:20:31;;;;;;;5.78;3.05;;;;;;;;;;6302598;22;20023;-77
2021/01/20 02:23:02;;;;;;;6.07;3.28;;;;;;;;;;6302300;22;20061;-77
2021/01/20 02:25:31;;;;;;;6.38;3.92;;;;;;;;;;6272719;22;20090;-76
2021/01/20 02:28:09;;;;;;;6.72;3.42;;;;;;;;;;6302252;22;20022;-76
2021/01/20 02:30:36;;;;;;;4.82;3.00;;;;;;;;;;6302370;22;20079;-77
2021/01/20 02:33:03;;;;;;;5.60;3.22;;;;;;;;;;6301989;22;20011;-77
2021/01/20 02:35:29;;;;;;;7.47;3.67;;;;;;;;;;6302806;22;20427;-76
2021/01/20 02:37:56;;;;;;;5.18;3.17;;;;;;;;;;6275446;22;20471;-77
2021/01/20 02:40:23;;;;;;;5.00;3.13;;;;;;;;;;6275100;22;19999;-75
2021/01/20 02:42:49;;;;;;;5.75;3.40;;;;;;;;;;6274556;22;20006;-77
2021/01/20 02:45:16;;;;;;;5.57;3.15;;;;;;;;;;6302635;22;20071;-77
2021/01/20 02:47:42;;;;;;;5.22;3.40;;;;;;;;;;6302635;22;20034;-77
2021/01/20 02:50:09;;;;;;;5.22;3.28;;;;;;;;;;6302041;22;20116;-77
2021/01/20 02:52:49;;;;;;;6.38;3.50;;;;;;;;;;6301569;22;19996;-77
2021/01/20 02:55:18;;;;;;;6.38;3.40;;;;;;;;;;6302545;22;19999;-76
2021/01/20 02:57:47;;;;;;;6.82;3.67;;;;;;;;;;6275027;22;20382;-77
2021/01/20 03:00:14;;;;;;;5.13;3.33;;;;;;;;;;6273929;22;20003;-76
2021/01/20 03:02:41;;;;;;;5.05;3.15;;;;;;;;;;6304265;22;19999;-76
2021/01/20 03:05:08;;;;;;;5.37;3.20;;;;;;;;;;6304720;22;20002;-76
2021/01/20 03:07:35;;;;;;;6.03;3.30;;;;;;;;;;6304987;22;20321;-76
2021/01/20 03:10:01;;;;;;;6.63;3.47;;;;;;;;;;6304591;22;20000;-77
2021/01/20 03:12:28;;;;;;;6.70;3.30;;;;;;;;;;6304428;22;20003;-77
2021/01/20 03:14:55;;;;;;;5.82;3.75;;;;;;;;;;6304593;22;20031;-76
2021/01/20 03:17:21;;;;;;;5.75;3.45;;;;;;;;;;6304617;22;19996;-77
2021/01/20 03:19:47;;;;;;;6.63;3.88;;;;;;;;;;6304729;22;20000;-77
2021/01/20 03:22:13;;;;;;;6.15;3.70;;;;;;;;;;6304126;22;19999;-77
2021/01/20 03:24:39;;;;;;;6.05;3.30;;;;;;;;;;6277103;22;20049;-76
2021/01/20 03:27:05;;;;;;;6.03;3.33;;;;;;;;;;6305507;22;20443;-77
2021/01/20 03:29:31;;;;;;;6.45;3.63;;;;;;;;;;6305571;22;19995;-77
2021/01/20 03:31:57;;;;;;;7.38;3.72;;;;;;;;;;6305639;22;20017;-77
2021/01/20 03:34:23;;;;;;;7.53;3.83;;;;;;;;;;6305608;22;19999;-77
2021/01/20 03:36:49;;;;;;;5.30;3.42;;;;;;;;;;6306103;22;19995;-77
2021/01/20 03:39:15;;;;;;;6.25;3.88;;;;;;;;;;6278549;22;20098;-77
2021/01/20 03:41:41;;;;;;;8.80;4.05;;;;;;;;;;6277271;22;20089;-76
2021/01/20 03:44:07;;;;;;;7.35;4.00;;;;;;;;;;6276798;22;20013;-77
2021/01/20 03:46:33;;;;;;;7.32;4.20;;;;;;;;;;6303978;22;20018;-77
2021/01/20 03:48:59;;;;;;;6.80;3.90;;;;;;;;;;6304132;22;19999;-76
2021/01/20 03:51:28;;;;;;;6.90;3.95;;;;;;;;;;6303942;22;20003;-77
2021/01/20 03:53:54;;;;;;;7.47;4.07;;;;;;;;;;6303970;22;20428;-76
2021/01/20 03:56:20;;;;;;;7.53;4.15;;;;;;;;;;6304425;22;20010;-77
2021/01/20 03:58:46;;;;;;;7.25;3.95;;;;;;;;;;6306234;22;20056;-76
2021/01/20 04:01:13;;;;;;;6.57;3.78;;;;;;;;;;6305589;22;20010;-77
2021/01/20 04:03:39;;;;;;;5.97;3.40;;;;;;;;;;6276818;22;20017;-77
2021/01/20 04:06:05;;;;;;;6.35;3.45;;;;;;;;;;6277410;22;20022;-77
2021/01/20 04:08:31;;;;;;;5.80;3.20;;;;;;;;;;6277115;22;20083;-76
2021/01/20 04:10:57;;;;;;;6.65;3.28;;;;;;;;;;6303692;22;20003;-76
2021/01/20 04:13:24;;;;;;;9.07;3.40;;;;;;;;;;6300547;22;19999;-76
2021/01/20 04:15:50;;;;;;;5.95;3.53;;;;;;;;;;6301829;22;20427;-77
2021/01/20 04:18:16;;;;;;;5.43;2.97;;;;;;;;;;6302033;22;20212;-76
2021/01/20 04:20:42;;;;;;;5.53;3.13;;;;;;;;;;6301083;22;19995;-76
2021/01/20 04:23:08;;;;;;;6.47;3.42;;;;;;;;;;6273746;22;19995;-76
2021/01/20 04:25:34;;;;;;;5.90;3.25;;;;;;;;;;6301183;22;19999;-76
2021/01/20 04:28:00;;;;;;;6.35;3.13;;;;;;;;;;6274245;22;20002;-76
2021/01/20 04:30:26;;;;;;;5.20;3.05;;;;;;;;;;6273954;22;20003;-75
2021/01/20 04:32:52;;;;;;;6.50;3.55;;;;;;;;;;6273418;22;20374;-76
2021/01/20 04:35:18;;;;;;;5.90;3.50;;;;;;;;;;6274213;22;19999;-77
2021/01/20 04:37:44;;;;;;;6.13;3.67;;;;;;;;;;6301537;22;20065;-75
2021/01/20 04:40:11;;;;;;;5.53;3.30;;;;;;;;;;6301710;22;20055;-76
2021/01/20 04:42:37;;;;;;;7.65;3.88;;;;;;;;;;6300892;22;20003;-77
2021/01/20 04:45:03;;;;;;;8.00;4.10;;;;;;;;;;6301550;22;20010;-76
2021/01/20 04:47:30;;;;;;;6.30;3.83;;;;;;;;;;6274064;22;20007;-76
2021/01/20 04:49:58;;;;;;;7.20;4.13;;;;;;;;;;6274432;22;20007;-75
2021/01/20 04:52:27;;;;;;;7.45;4.22;;;;;;;;;;6274028;22;20388;-76
2021/01/20 04:54:54;;;;;;;8.95;4.80;;;;;;;;;;6301940;22;20056;-76
2021/01/20 04:57:21;;;;;;;10.02;5.18;;;;;;;;;;6274541;22;20007;-76
2021/01/20 04:59:49;;;;;;;8.07;4.78;;;;;;;;;;6274600;22;20034;-77
2021/01/20 05:02:15;;;;;;;9.02;5.20;;;;;;;;;;6273532;22;20000;-77
2021/01/20 05:04:41;;;;;;;10.57;5.60;;;;;;;;;;6301699;22;20007;-77
2021/01/20 05:07:08;;;;;;;10.25;5.40;;;;;;;;;;6274163;22;20010;-77
2021/01/20 05:09:34;;;;;;;6.47;4.05;;;;;;;;;;6301865;22;19996;-77
2021/01/20 05:12:00;;;;;;;10.13;5.22;;;;;;;;;;6301791;22;20068;-77
2021/01/20 05:14:26;;;;;;;8.32;4.57;;;;;;;;;;6301520;22;19999;-77
2021/01/20 05:16:53;;;;;;;9.52;4.85;;;;;;;;;;6301500;22;20000;-77
2021/01/20 05:19:39;;;;;;;8.45;4.50;;;;;;;;;;6301544;22;20476;-76
2021/01/20 05:22:06;;;;;;;7.60;4.57;;;;;;;;;;6300568;22;20625;-76
2021/01/20 05:24:33;;;;;;;7.40;4.27;;;;;;;;;;6302459;22;20023;-77
2021/01/20 05:26:59;;;;;;;7.50;4.68;;;;;;;;;;6303868;22;20221;-76
2021/01/20 05:29:25;;;;;;;8.70;4.38;;;;;;;;;;6303415;22;20030;-77
2021/01/20 05:31:51;;;;;;;8.73;5.18;;;;;;;;;;6302959;22;20042;-76
2021/01/20 05:34:32;;;;;;;8.02;5.53;;;;;;;;;;6276113;22;20376;-77
2021/01/20 05:37:02;;;;;;;10.25;5.70;;;;;;;;;;6303541;22;19996;-77
2021/01/20 05:39:28;;;;;;;12.75;6.32;;;;;;;;;;6276218;22;20007;-77
2021/01/20 05:42:01;;;;;;;9.00;5.28;;;;;;;;;;6303417;22;20007;-77
2021/01/20 05:44:27;;;;;;;9.68;5.72;;;;;;;;;;6275787;22;20011;-77
2021/01/20 05:46:53;;;;;;;9.65;6.05;;;;;;;;;;6303586;22;19999;-78
2021/01/20 05:49:27;;;;;;;10.30;5.32;;;;;;;;;;6275721;22;20363;-77
2021/01/20 05:51:54;;;;;;;8.63;5.47;;;;;;;;;;6302941;22;20003;-76
2021/01/20 05:54:36;;;;;;;8.23;5.27;;;;;;;;;;6276065;22;20033;-77
2021/01/20 05:57:28;;;;;;;7.95;5.03;;;;;;;;;;6303407;22;19999;-76
2021/01/20 05:59:55;;;;;;;9.15;4.95;;;;;;;;;;6268895;22;20003;-77
2021/01/20 06:02:21;;;;;;;8.60;5.22;;;;;;;;;;6274759;22;20086;-77
2021/01/20 06:04:48;;;;;;;11.45;7.28;;;;;;;;;;6275367;22;20382;-77
2021/01/20 06:07:15;;;;;;;12.13;7.43;;;;;;;;;;6275305;22;20004;-77
2021/01/20 06:09:45;;;;;;;7.85;4.63;;;;;;;;;;6302773;22;19995;-77
2021/01/20 06:12:12;;;;;;;10.18;5.85;;;;;;;;;;6302989;22;20386;-75
2021/01/20 06:14:42;;;;;;;8.80;5.45;;;;;;;;;;6303710;22;20447;-75
2021/01/20 06:17:14;;;;;;;9.20;5.60;;;;;;;;;;6303937;22;20376;-76
2021/01/20 06:19:45;;;;;;;8.48;5.40;;;;;;;;;;6303991;22;20327;-77
2021/01/20 06:22:11;;;;;;;7.43;4.63;;;;;;;;;;6303821;22;20035;-77
2021/01/20 06:24:42;;;;;;;7.40;4.55;;;;;;;;;;6303498;22;19999;-77
2021/01/20 06:27:13;;;;;;;7.82;4.53;;;;;;;;;;6303972;22;20025;-76
2021/01/20 06:29:43;;;;;;;7.63;4.57;;;;;;;;;;6303123;22;20010;-77
2021/01/20 06:32:10;;;;;;;8.13;4.32;;;;;;;;;;6302480;22;20007;-76
2021/01/20 06:34:36;;;;;;;7.18;4.20;;;;;;;;;;6303170;22;20432;-76
2021/01/20 06:37:02;;;;;;;6.53;3.97;;;;;;;;;;6275878;22;20007;-76
2021/01/20 06:39:35;;;;;;;7.38;4.28;;;;;;;;;;6303065;22;19995;-76
2021/01/20 06:42:01;;;;;;;7.35;4.22;;;;;;;;;;6303055;22;20511;-77
2021/01/20 06:44:27;;;;;;;7.82;4.45;;;;;;;;;;6275263;22;20010;-77
2021/01/20 06:46:56;;;;;;;6.88;4.22;;;;;;;;;;6275131;22;20011;-77
2021/01/20 06:49:23;;;;;;;8.18;4.60;;;;;;;;;;6302464;22;20074;-76
2021/01/20 06:52:09;;;;;;;9.40;4.63;;;;;;;;;;6302559;22;20003;-77
2021/01/20 06:54:36;;;;;;;9.98;6.53;;;;;;;;;;6275014;22;20007;-77
2021/01/20 06:57:02;;;;;;;9.90;5.43;;;;;;;;;;6302317;22;20045;-77
2021/01/20 06:59:31;;;;;;;10.48;5.13;;;;;;;;;;6302064;22;20003;-77
2021/01/20 07:02:09;;;;;;;9.60;5.05;;;;;;;;;;6301726;22;20003;-77
2021/01/20 07:04:38;;;;;;;8.77;4.78;;;;;;;;;;6302180;22;20001;-77
2021/01/20 07:07:05;;;;;;;7.97;4.70;;;;;;;;;;6302297;22;20003;-76
2021/01/20 07:09:49;;;;;;;8.02;4.65;;;;;;;;;;6302383;22;20003;-77
2021/01/20 07:12:21;;;;;;;8.02;4.82;;;;;;;;;;6301786;22;20007;-77
2021/01/20 07:14:47;;;;;;;7.78;4.70;;;;;;;;;;6274691;22;20007;-76
2021/01/20 07:17:13;;;;;;;8.50;4.75;;;;;;;;;;6301887;22;19999;-75
2021/01/20 07:19:40;;;;;;;8.30;4.93;;;;;;;;;;6302372;22;20086;-77
2021/01/20 07:22:06;;;;;;;8.30;4.80;;;;;;;;;;6301471;22;20002;-77
2021/01/20 07:24:33;;;;;;;8.35;5.30;;;;;;;;;;6302003;22;20083;-77
2021/01/20 07:27:18;;;;;;;8.40;5.15;;;;;;;;;;6302082;22;20021;-77
2021/01/20 07:29:47;;;;;;;11.77;6.18;;;;;;;;;;6302058;22;20078;-77
2021/01/20 07:32:13;;;;;;;10.52;6.88;;;;;;;;;;6301902;22;20348;-77
2021/01/20 07:34:40;;;;;;;12.23;7.65;;;;;;;;;;6301890;22;20003;-77
2021/01/20 07:37:09;;;;;;;12.02;7.63;;;;;;;;;;6302198;22;20041;-77
2021/01/20 07:39:35;;;;;;;12.13;7.25;;;;;;;;;;6301909;22;20003;-76
2021/01/20 07:42:02;;;;;;;11.63;7.22;;;;;;;;;;6301326;22;20100;-76
2021/01/20 07:44:28;;;;;;;17.00;12.53;;;;;;;;;;6301587;22;20078;-77
2021/01/20 07:47:01;;;;;;;17.08;13.68;;;;;;;;;;6273957;22;20006;-77
2021/01/20 07:49:28;;;;;;;14.18;8.23;;;;;;;;;;6274275;22;20316;-77
2021/01/20 07:52:00;;;;;;;14.57;7.43;;;;;;;;;;6273733;22;20003;-76
2021/01/20 07:54:26;;;;;;;10.95;6.65;;;;;;;;;;6301724;22;20011;-77
2021/01/20 07:56:52;;;;;;;13.25;7.22;;;;;;;;;;6301721;22;20400;-77
2021/01/20 07:59:19;;;;;;;11.05;6.93;;;;;;;;;;6274417;22;20309;-77
2021/01/20 08:01:45;;;;;;;13.75;7.30;;;;;;;;;;6301193;22;20003;-77
2021/01/20 08:04:38;;;;;;;11.27;7.15;;;;;;;;;;6273771;22;20007;-79
2021/01/20 08:07:04;;;;;;;12.95;7.75;;;;;;;;;;6267422;22;20000;-78
2021/01/20 08:09:39;;;;;;;11.63;7.43;;;;;;;;;;6273792;22;20072;-78
2021/01/20 08:12:07;;;;;;;14.70;9.20;;;;;;;;;;6301328;22;20057;-77
2021/01/20 08:14:34;;;;;;;27.42;13.80;;;;;;;;;;6273772;22;20031;-78
2021/01/20 08:17:00;;;;;;;20.88;10.23;;;;;;;;;;6301600;22;20003;-77
2021/01/20 08:19:26;;;;;;;17.17;9.40;;;;;;;;;;6301165;22;20089;-78
2021/01/20 08:21:53;;;;;;;20.08;10.77;;;;;;;;;;6273827;22;20423;-79
2021/01/20 08:24:20;;;;;;;21.17;11.07;;;;;;;;;;6300837;22;20374;-79
2021/01/20 08:26:46;;;;;;;;;;;;;;;;;;6274279;22;20237;-77
2021/01/20 08:29:13;;;;;;;14.30;7.57;;;;;;;;;;6300909;22;20328;-78
2021/01/20 08:31:40;;;;;;;13.82;7.50;;;;;;;;;;6272926;22;20065;-79
2021/01/20 08:34:15;;;;;;;10.87;6.57;;;;;;;;;;6301212;22;20026;-78
2021/01/20 08:36:54;;;;;;;12.60;6.97;;;;;;;;;;6301476;22;20229;-79
2021/01/20 08:39:20;;;;;;;11.13;6.60;;;;;;;;;;6301288;22;20003;-78
2021/01/20 08:42:05;;;;;;;11.98;7.05;;;;;;;;;;6273251;22;20432;-78
2021/01/20 08:44:31;;;;;;;11.45;6.32;;;;;;;;;;6300991;22;19991;-78
2021/01/20 08:46:57;;;;;;;11.13;6.35;;;;;;;;;;6273817;22;20014;-77
2021/01/20 08:49:23;;;;;;;12.25;6.80;;;;;;;;;;6300877;22;20009;-78
2021/01/20 08:51:56;;;;;;;10.95;6.43;;;;;;;;;;6300198;22;20026;-78
2021/01/20 08:54:22;;;;;;;10.55;6.57;;;;;;;;;;6301628;22;20006;-78
2021/01/20 08:56:48;;;;;;;9.77;6.18;;;;;;;;;;6301233;22;19995;-81
2021/01/20 08:59:14;;;;;;;11.48;6.40;;;;;;;;;;6303385;22;20003;-77
2021/01/20 09:01:40;;;;;;;10.10;6.25;;;;;;;;;;6274997;22;20003;-78
2021/01/20 09:04:06;;;;;;;9.88;5.53;;;;;;;;;;6275809;22;20026;-78
2021/01/20 09:06:32;;;;;;;10.25;6.13;;;;;;;;;;6303382;22;20079;-79
2021/01/20 09:08:58;;;;;;;10.93;5.93;;;;;;;;;;6302869;22;20078;-78
2021/01/20 09:11:25;;;;;;;10.57;6.00;;;;;;;;;;6301949;22;20027;-79
2021/01/20 09:13:54;;;;;;;9.25;5.70;;;;;;;;;;6275493;22;20035;-78
2021/01/20 09:16:26;;;;;;;11.15;5.88;;;;;;;;;;6275699;22;20003;-78
2021/01/20 09:18:53;;;;;;;10.73;6.43;;;;;;;;;;6302914;22;20030;-78
2021/01/20 09:21:19;;;;;;;9.68;6.05;;;;;;;;;;6302147;22;20023;-77
2021/01/20 09:23:45;;;;;;;10.15;6.10;;;;;;;;;;6302904;22;19999;-78
2021/01/20 09:26:11;;;;;;;9.82;6.03;;;;;;;;;;6275367;22;20451;-77
2021/01/20 09:28:37;;;;;;;12.95;6.22;;;;;;;;;;6303004;22;20142;-78
2021/01/20 09:31:03;;;;;;;11.50;6.07;;;;;;;;;;6302092;22;20034;-78
2021/01/20 09:33:29;;;;;;;9.95;5.85;;;;;;;;;;6302985;22;20011;-78
2021/01/20 09:35:55;;;;;;;11.00;5.68;;;;;;;;;;6302828;22;20647;-78
2021/01/20 09:38:21;;;;;;;17.77;9.27;;;;;;;;;;6299160;22;20004;-79
2021/01/20 09:40:47;;;;;;;22.35;10.88;;;;;;;;;;6270878;22;20007;-79
2021/01/20 09:43:16;;;;;;;14.68;8.68;;;;;;;;;;6275052;22;20000;-78
2021/01/20 09:45:44;;;;;;;15.10;8.43;;;;;;;;;;6276161;22;20006;-79
2021/01/20 09:48:10;;;;;;;14.18;9.07;;;;;;;;;;6276605;22;20332;-79
2021/01/20 09:50:37;;;;;;;13.23;6.55;;;;;;;;;;6303535;22;20069;-78
2021/01/20 09:53:04;;;;;;;13.80;6.60;;;;;;;;;;6302979;22;20348;-78
2021/01/20 09:55:30;;;;;;;11.20;6.85;;;;;;;;;;6275724;22;20416;-79
2021/01/20 09:57:56;;;;;;;14.82;6.22;;;;;;;;;;6275810;22;20340;-78
2021/01/20 10:00:22;;;;;;;14.88;8.13;;;;;;;;;;6302994;22;20000;-78
2021/01/20 10:02:48;;;;;;;12.90;7.10;;;;;;;;;;6303054;22;19991;-78
2021/01/20 10:05:14;;;;;;;15.77;6.75;;;;;;;;;;6276351;22;20126;-78
2021/01/20 10:07:41;;;;;;;11.05;6.88;;;;;;;;;;6303673;22;20013;-78
2021/01/20 10:10:09;;;;;;;13.48;6.82;;;;;;;;;;6275845;22;20006;-78
2021/01/20 10:12:35;;;;;;;13.10;6.90;;;;;;;;;;6302754;22;20439;-78
2021/01/20 10:15:01;;;;;;;13.55;6.80;;;;;;;;;;6303221;22;20546;-78
2021/01/20 10:17:27;;;;;;;16.95;6.70;;;;;;;;;;6302130;22;20129;-78
2021/01/20 10:19:53;;;;;;;17.88;8.00;;;;;;;;;;6302487;22;20074;-78
2021/01/20 10:22:19;;;;;;;17.73;7.85;;;;;;;;;;6302055;22;20007;-78
2021/01/20 10:24:45;;;;;;;17.05;7.10;;;;;;;;;;6303027;22;20000;-78
2021/01/20 10:27:11;;;;;;;15.00;8.63;;;;;;;;;;6300319;22;20072;-78
2021/01/20 10:29:37;;;;;;;13.10;7.55;;;;;;;;;;6274690;22;20022;-78
2021/01/20 10:32:05;;;;;;;14.57;8.00;;;;;;;;;;6273705;22;20034;-77
2021/01/20 10:34:31;;;;;;;12.77;7.68;;;;;;;;;;6301658;22;20006;-78
2021/01/20 10:36:57;;;;;;;13.23;7.35;;;;;;;;;;6274138;22;20007;-78
2021/01/20 10:39:23;;;;;;;17.23;7.28;;;;;;;;;;6274246;22;20007;-78
2021/01/20 10:41:50;;;;;;;11.02;6.55;;;;;;;;;;6300727;22;20098;-78
2021/01/20 10:44:16;;;;;;;13.25;7.35;;;;;;;;;;6274100;22;20462;-77
2021/01/20 10:46:42;;;;;;;14.13;7.45;;;;;;;;;;6301831;22;20721;-78
2021/01/20 10:49:08;;;;;;;14.50;8.77;;;;;;;;;;6301251;22;20002;-78
2021/01/20 10:51:34;;;;;;;12.70;8.30;;;;;;;;;;6300712;22;20007;-78
2021/01/20 10:54:01;;;;;;;13.07;8.07;;;;;;;;;;6273999;22;20101;-77
2021/01/20 10:56:27;;;;;;;12.90;7.75;;;;;;;;;;6301250;22;20412;-78
2021/01/20 10:58:53;;;;;;;12.43;7.10;;;;;;;;;;6301481;22;20014;-78
2021/01/20 11:01:19;;;;;;;9.93;6.15;;;;;;;;;;6273287;22;20020;-78
2021/01/20 11:03:45;;;;;;;10.40;5.60;;;;;;;;;;6273559;22;20035;-78
2021/01/20 11:06:12;;;;;;;13.57;5.65;;;;;;;;;;6273698;22;20041;-78
2021/01/20 11:08:38;;;;;;;10.20;5.57;;;;;;;;;;6301362;22;20006;-78
2021/01/20 11:11:04;;;;;;;9.27;5.57;;;;;;;;;;6272823;22;20448;-79
2021/01/20 11:13:30;;;;;;;10.07;5.80;;;;;;;;;;6273611;22;20466;-78
2021/01/20 11:15:57;;;;;;;9.93;6.00;;;;;;;;;;6301136;22;20003;-79
2021/01/20 11:18:25;;;;;;;9.70;5.97;;;;;;;;;;6273652;22;20004;-78
2021/01/20 11:20:50;;;;;;;10.13;6.97;;;;;;;;;;6300492;22;20416;-78
2021/01/20 11:23:17;;;;;;;9.50;6.32;;;;;;;;;;6300526;22;20041;-77
2021/01/20 11:25:44;;;;;;;9.52;5.90;;;;;;;;;;6301085;22;20022;-79
2021/01/20 11:28:11;;;;;;;17.05;10.20;;;;;;;;;;6273646;22;20494;-78
2021/01/20 11:30:37;;;;;;;12.48;7.32;;;;;;;;;;6301490;22;19992;-78
2021/01/20 11:33:03;;;;;;;14.82;8.20;;;;;;;;;;6300229;22;20014;-78
2021/01/20 11:35:29;;;;;;;24.73;14.40;;;;;;;;;;6273152;22;20000;-78
2021/01/20 11:37:58;;;;;;;25.17;14.68;;;;;;;;;;6300677;22;20042;-78
2021/01/20 11:40:24;;;;;;;12.48;7.72;;;;;;;;;;6272025;22;20007;-78
2021/01/20 11:42:57;;;;;;;12.77;7.63;;;;;;;;;;6300427;22;20462;-79
2021/01/20 11:45:23;;;;;;;10.38;6.93;;;;;;;;;;6301523;22;20367;-78
2021/01/20 11:47:49;;;;;;;13.93;7.40;;;;;;;;;;6301551;22;19991;-79
2021/01/20 11:50:15;;;;;;;12.73;7.05;;;;;;;;;;6301452;22;20113;-78
2021/01/20 11:52:41;;;;;;;13.45;8.38;;;;;;;;;;6273168;22;20090;-77
2021/01/20 11:55:07;;;;;;;12.95;7.88;;;;;;;;;;6274543;22;20309;-78
2021/01/20 11:57:34;;;;;;;84.38;34.58;;;;;;;;;;6301349;22;20003;-77
2021/01/20 12:00:00;;;;;;;68.70;29.17;;;;;;;;;;6273716;22;20006;-78
2021/01/20 12:02:26;;;;;;;19.50;11.10;;;;;;;;;;6300658;22;20053;-77
2021/01/20 12:04:52;;;;;;;11.98;7.68;;;;;;;;;;6301211;22;20007;-78
2021/01/20 12:07:18;;;;;;;12.43;7.32;;;;;;;;;;6273640;22;19999;-78
2021/01/20 12:09:44;;;;;;;14.48;7.40;;;;;;;;;;6301029;22;19999;-78
2021/01/20 12:12:10;;;;;;;12.45;7.70;;;;;;;;;;6300401;22;20432;-77
2021/01/20 12:14:37;;;;;;;12.25;8.07;;;;;;;;;;6301140;22;20003;-77
2021/01/20 12:17:04;;;;;;;16.27;9.57;;;;;;;;;;6301255;22;20003;-78
2021/01/20 12:19:30;;;;;;;12.23;6.80;;;;;;;;;;6301036;22;20003;-78
2021/01/20 12:21:56;;;;;;;13.38;7.22;;;;;;;;;;6300826;22;20324;-78
2021/01/20 12:24:22;;;;;;;14.98;8.77;;;;;;;;;;6273033;22;20006;-78
2021/01/20 12:26:48;;;;;;;13.32;6.82;;;;;;;;;;6301314;22;20451;-78
2021/01/20 12:29:15;;;;;;;10.45;5.68;;;;;;;;;;6301170;22;20018;-78
2021/01/20 12:31:41;;;;;;;10.30;5.93;;;;;;;;;;6273018;22;20007;-79
2021/01/20 12:34:07;;;;;;;13.10;7.50;;;;;;;;;;6273883;22;20027;-78
2021/01/20 12:36:33;;;;;;;12.82;6.70;;;;;;;;;;6273665;22;20003;-78
2021/01/20 12:38:59;;;;;;;8.98;5.80;;;;;;;;;;6273453;22;20014;-77
2021/01/20 12:41:25;;;;;;;10.27;5.60;;;;;;;;;;6300090;22;20071;-79
2021/01/20 12:43:51;;;;;;;10.07;6.65;;;;;;;;;;6273010;22;20618;-79
2021/01/20 12:46:17;;;;;;;11.65;7.47;;;;;;;;;;6273285;22;20003;-78
2021/01/20 12:48:43;;;;;;;11.35;5.57;;;;;;;;;;6273259;22;20003;-77
2021/01/20 12:51:10;;;;;;;10.80;5.25;;;;;;;;;;6300555;22;20057;-79
2021/01/20 12:53:36;;;;;;;8.25;4.70;;;;;;;;;;6272869;22;20534;-79
2021/01/20 12:56:02;;;;;;;9.70;5.30;;;;;;;;;;6300728;22;20003;-79
2021/01/20 12:58:28;;;;;;;11.88;6.05;;;;;;;;;;6273672;22;20011;-78
2021/01/20 13:00:54;;;;;;;11.38;5.75;;;;;;;;;;6272705;22;20007;-79
2021/01/20 13:03:20;;;;;;;8.27;4.90;;;;;;;;;;6300997;22;20434;-78
2021/01/20 13:05:46;;;;;;;12.73;5.90;;;;;;;;;;6272943;22;20011;-78
2021/01/20 13:08:12;;;;;;;29.40;13.45;;;;;;;;;;6300378;22;20331;-77
2021/01/20 13:10:38;;;;;;;14.63;8.27;;;;;;;;;;6272823;22;20003;-79
2021/01/20 13:13:04;;;;;;;78.13;35.33;;;;;;;;;;6272284;22;20011;-79
2021/01/20 13:15:32;;;;;;;14.93;7.38;;;;;;;;;;6271450;22;20327;-80
2021/01/20 13:17:58;;;;;;;12.38;6.03;;;;;;;;;;6292415;22;20077;-77
2021/01/20 13:20:24;;;;;;;12.68;6.05;;;;;;;;;;6299594;22;19996;-78
2021/01/20 13:22:50;;;;;;;9.07;4.50;;;;;;;;;;6272409;22;20013;-78
2021/01/20 13:25:21;;;;;;;8.30;3.90;;;;;;;;;;6300335;22;20027;-76
2021/01/20 13:27:47;;;;;;;8.25;4.63;;;;;;;;;;6300125;22;19999;-77
2021/01/20 13:30:13;;;;;;;8.63;4.13;;;;;;;;;;6300252;22;20317;-78
2021/01/20 13:32:39;;;;;;;20.27;10.55;;;;;;;;;;6272417;22;20092;-78
2021/01/20 13:35:05;;;;;;;13.80;5.90;;;;;;;;;;6300397;22;20320;-79
2021/01/20 13:37:31;;;;;;;8.60;4.03;;;;;;;;;;6300620;22;20003;-77
2021/01/20 13:39:57;;;;;;;6.30;4.30;;;;;;;;;;6300524;22;20029;-78
2021/01/20 13:42:24;;;;;;;8.70;4.88;;;;;;;;;;6288690;22;19999;-79
2021/01/20 13:44:51;;;;;;;7.00;3.70;;;;;;;;;;6300967;22;20023;-79
2021/01/20 13:47:17;;;;;;;5.72;3.40;;;;;;;;;;6275153;22;20060;-78
2021/01/20 13:49:44;;;;;;;5.88;3.65;;;;;;;;;;6274950;22;20004;-79
2021/01/20 13:52:10;;;;;;;6.15;3.03;;;;;;;;;;6274487;22;20386;-79
2021/01/20 13:54:36;;;;;;;8.80;5.15;;;;;;;;;;6274939;22;20003;-79
2021/01/20 13:57:06;;;;;;;8.07;3.58;;;;;;;;;;6274899;22;20035;-79
2021/01/20 13:59:31;;;;;;;6.65;3.22;;;;;;;;;;6302406;22;20492;-79
2021/01/20 14:01:57;;;;;;;9.68;5.32;;;;;;;;;;6302071;22;20026;-79
2021/01/20 14:04:23;;;;;;;12.15;6.50;;;;;;;;;;6302240;22;20021;-77
2021/01/20 14:06:49;;;;;;;9.27;5.82;;;;;;;;;;6302469;22;20006;-79
2021/01/20 14:09:15;;;;;;;6.10;3.70;;;;;;;;;;6302639;22;20003;-78
2021/01/20 14:11:41;;;;;;;6.38;3.20;;;;;;;;;;6301745;22;20019;-78
2021/01/20 14:14:07;;;;;;;6.10;3.20;;;;;;;;;;6302256;22;20003;-77
2021/01/20 14:16:35;;;;;;;6.20;3.10;;;;;;;;;;6275364;22;20006;-78
2021/01/20 14:19:01;;;;;;;7.07;3.10;;;;;;;;;;6275109;22;20439;-78
2021/01/20 14:21:27;;;;;;;11.15;4.82;;;;;;;;;;6275058;22;20015;-79
2021/01/20 14:23:53;;;;;;;8.63;5.13;;;;;;;;;;6302595;22;20076;-78
2021/01/20 14:26:20;;;;;;;7.95;4.00;;;;;;;;;;6302247;22;20422;-79
2021/01/20 14:28:46;;;;;;;6.07;3.58;;;;;;;;;;6301349;22;19996;-78
2021/01/20 14:31:12;;;;;;;8.15;3.10;;;;;;;;;;6301747;22;19999;-78
2021/01/20 14:33:38;;;;;;;8.00;3.30;;;;;;;;;;6274634;22;20019;-78
2021/01/20 14:36:04;;;;;;;7.07;3.40;;;;;;;;;;6302714;22;20058;-78
2021/01/20 14:38:30;;;;;;;8.75;3.90;;;;;;;;;;6300399;22;20052;-78